createdAt,value
2022-10-03T00:00:23.977Z,100.00
2022-10-03T00:10:25.251Z,100.00
2022-10-03T00:20:26.491Z,100.00
2022-10-03T00:30:27.810Z,100.00
2022-10-03T00:40:29.090Z,100.00
2022-10-03T00:50:30.383Z,100.00
2022-10-03T01:00:31.678Z,100.00
2022-10-03T01:10:33.032Z,100.00
2022-10-03T01:20:34.414Z,100.00
2022-10-03T01:30:35.706Z,100.00
2022-10-03T01:40:37.035Z,100.00
2022-10-03T01:50:38.419Z,100.00
2022-10-03T02:00:39.733Z,100.00
2022-10-03T02:10:41.098Z,100.00
2022-10-03T02:20:42.405Z,100.00
2022-10-03T02:30:43.690Z,100.00
2022-10-03T02:40:45.782Z,100.00
2022-10-03T02:50:47.139Z,100.00
2022-10-03T03:00:48.519Z,100.00
2022-10-03T03:10:49.831Z,100.00
2022-10-03T03:20:52.390Z,100.00
2022-10-03T03:30:53.687Z,100.00
2022-10-03T03:40:55.299Z,100.00
2022-10-03T03:50:57.252Z,100.00
2022-10-03T04:00:58.594Z,100.00
2022-10-03T04:10:59.966Z,100.00
2022-10-03T04:21:01.272Z,100.00
2022-10-03T04:31:02.631Z,100.00
2022-10-03T04:41:05.016Z,100.00
2022-10-03T04:51:06.619Z,100.00
2022-10-03T05:01:07.949Z,100.00
2022-10-03T05:11:09.352Z,100.00
2022-10-03T05:21:10.725Z,100.00
2022-10-03T05:31:12.149Z,100.00
2022-10-03T05:41:13.450Z,100.00
2022-10-03T05:51:14.781Z,100.00
2022-10-03T06:01:16.234Z,100.00
2022-10-03T06:11:17.817Z,100.00
2022-10-03T06:21:19.132Z,100.00
2022-10-03T06:31:20.505Z,100.00
2022-10-03T06:41:21.880Z,100.00
2022-10-03T06:51:28.293Z,100.00
2022-10-03T07:01:31.859Z,100.00
2022-10-03T07:11:34.673Z,100.00
2022-10-03T07:21:36.014Z,100.00
2022-10-03T07:31:37.856Z,100.00
2022-10-03T07:41:39.661Z,100.00
2022-10-03T07:51:42.420Z,100.00
2022-10-03T08:01:43.858Z,100.00
2022-10-03T08:22:07.470Z,100.00
2022-10-03T08:32:08.827Z,100.00
2022-10-03T08:42:18.496Z,100.00
2022-10-03T08:52:21.586Z,100.00
2022-10-03T09:02:24.207Z,100.00
2022-10-03T09:12:25.653Z,100.00
2022-10-03T09:22:28.109Z,100.00
2022-10-03T09:32:29.414Z,100.00
2022-10-03T09:42:32.274Z,100.00
2022-10-03T09:52:34.978Z,100.00
2022-10-03T10:02:36.292Z,100.00
2022-10-03T10:12:37.671Z,100.00
2022-10-03T10:22:40.641Z,100.00
2022-10-03T10:32:41.963Z,100.00
2022-10-03T10:42:43.502Z,100.00
2022-10-03T10:52:44.795Z,100.00
2022-10-03T11:02:46.262Z,100.00
2022-10-03T11:12:47.558Z,100.00
2022-10-03T11:22:48.871Z,100.00
2022-10-03T11:32:50.204Z,100.00
2022-10-03T11:42:51.593Z,100.00
2022-10-03T11:52:52.891Z,100.00
2022-10-03T12:02:54.310Z,100.00
2022-10-03T12:12:55.600Z,100.00
2022-10-03T12:22:56.992Z,100.00
2022-10-03T12:32:59.203Z,100.00
2022-10-03T12:43:00.513Z,100.00
2022-10-03T12:53:02.472Z,100.00
2022-10-03T13:03:03.704Z,94.06
2022-10-03T13:13:06.048Z,91.87
2022-10-03T13:23:07.829Z,89.98
2022-10-03T13:33:09.139Z,86.72
2022-10-03T13:43:11.218Z,84.66
2022-10-03T13:53:12.480Z,82.50
2022-10-03T14:03:13.852Z,81.71
2022-10-03T14:13:17.423Z,79.57
2022-10-03T14:23:18.809Z,84.55
2022-10-03T14:33:20.196Z,82.87
2022-10-03T14:43:21.432Z,84.54
2022-10-03T14:53:23.920Z,86.69
2022-10-03T15:03:25.253Z,85.96
2022-10-03T15:13:26.585Z,87.47
2022-10-03T15:23:27.822Z,86.41
2022-10-03T15:33:32.616Z,91.97
2022-10-03T15:43:34.424Z,94.47
2022-10-03T15:53:37.234Z,97.88
2022-10-03T16:03:39.073Z,92.59
2022-10-03T16:13:40.377Z,93.95
2022-10-03T16:23:44.472Z,95.44
2022-10-03T16:33:45.763Z,99.25
2022-10-03T16:43:47.075Z,100.00
2022-10-03T16:53:48.300Z,100.00
2022-10-03T17:03:49.604Z,100.00
2022-10-03T17:13:50.892Z,100.00
2022-10-03T17:23:52.201Z,100.00
2022-10-03T17:33:53.506Z,100.00
2022-10-03T17:43:54.727Z,100.00
2022-10-03T17:53:57.906Z,100.00
2022-10-03T18:04:01.978Z,100.00
2022-10-03T18:14:03.215Z,100.00
2022-10-03T18:24:04.481Z,100.00
2022-10-03T18:34:09.141Z,100.00
2022-10-03T18:44:12.811Z,100.00
2022-10-03T18:54:14.094Z,100.00
2022-10-03T19:04:15.314Z,100.00
2022-10-03T19:14:16.890Z,100.00
2022-10-03T19:24:18.648Z,100.00
2022-10-03T19:34:19.961Z,100.00
2022-10-03T19:44:21.344Z,100.00
2022-10-03T19:54:22.568Z,100.00
2022-10-03T20:04:25.935Z,100.00
2022-10-03T20:14:27.643Z,100.00
2022-10-03T20:24:28.954Z,100.00
2022-10-03T20:34:30.827Z,100.00
2022-10-03T20:44:32.473Z,100.00
2022-10-03T20:54:33.857Z,100.00
2022-10-03T21:04:35.083Z,100.00
2022-10-03T21:14:36.441Z,100.00
2022-10-03T21:24:37.757Z,100.00
2022-10-03T21:34:39.068Z,100.00
2022-10-03T21:44:40.451Z,100.00
2022-10-03T21:54:41.832Z,100.00
2022-10-03T22:04:43.131Z,100.00
2022-10-03T22:14:44.523Z,100.00
2022-10-03T22:24:45.814Z,100.00
2022-10-03T22:34:47.124Z,100.00
2022-10-03T22:44:48.440Z,100.00
2022-10-03T22:54:49.760Z,100.00
2022-10-03T23:04:51.064Z,100.00
2022-10-03T23:14:52.365Z,100.00
2022-10-03T23:24:53.658Z,100.00
2022-10-03T23:34:54.946Z,100.00
2022-10-03T23:44:56.278Z,100.00
2022-10-03T23:54:57.597Z,100.00
